Time;durP1;ratioP1;P1;durP2;ratioP2;P2;SDS_P1;SDS_P2;PMS_P1;PMS_P2;Temp;Humidity;BMP_temperature;BMP_pressure;BME280_temperature;BME280_humidity;BME280_pressure;Samples;Min_cycle;Max_cycle;Signal;HPM_P1;HPM_P2
2022/06/03 00:02:11;;;;;;;;;3.00;3.00;;;;;;;;4981864;28;9426;-80
2022/06/03 00:04:50;;;;;;;;;1.50;1.50;;;;;;;;4971076;28;9502;-79
2022/06/03 00:07:25;;;;;;;;;3.25;3.25;;;;;;;;4985607;28;9592;-79
2022/06/03 00:10:13;;;;;;;;;2.00;2.00;;;;;;;;4981384;28;9494;-81
2022/06/03 00:12:53;;;;;;;;;3.00;3.00;;;;;;;;4986478;28;10318;-81
2022/06/03 00:15:57;;;;;;;;;3.00;3.00;;;;;;;;4982466;28;9622;-81
2022/06/03 00:19:04;;;;;;;;;4.00;2.25;;;;;;;;4978764;28;10274;-81
2022/06/03 00:21:58;;;;;;;;;2.00;2.00;;;;;;;;4923909;29;9678;-80
2022/06/03 00:24:45;;;;;;;;;2.00;2.00;;;;;;;;4949814;28;9657;-79
2022/06/03 00:27:37;;;;;;;;;4.25;3.00;;;;;;;;4963470;28;9853;-81
2022/06/03 00:30:17;;;;;;;;;2.67;2.67;;;;;;;;4974830;28;9626;-80
2022/06/03 00:33:21;;;;;;;;;3.25;3.25;;;;;;;;4990111;28;9786;-81
2022/06/03 00:36:03;;;;;;;;;4.75;4.75;;;;;;;;4980596;28;9830;-81
2022/06/03 00:38:53;;;;;;;;;3.00;3.00;;;;;;;;4971406;28;10044;-81
2022/06/03 00:41:40;;;;;;;;;3.75;2.75;;;;;;;;4967473;28;9794;-80
2022/06/03 00:44:36;;;;;;;;;4.00;4.00;;;;;;;;4982043;28;9957;-80
2022/06/03 00:47:19;;;;;;;;;4.00;4.00;;;;;;;;4985892;28;10021;-80
2022/06/03 00:50:07;;;;;;;;;4.25;4.25;;;;;;;;4981958;28;10033;-80
2022/06/03 00:52:55;;;;;;;;;3.00;3.00;;;;;;;;4981554;28;9967;-80
2022/06/03 00:55:48;;;;;;;;;4.00;4.00;;;;;;;;4987438;28;9963;-80
2022/06/03 00:58:46;;;;;;;;;4.00;4.00;;;;;;;;4972409;28;10835;-79
2022/06/03 01:01:20;;;;;;;;;2.75;2.75;;;;;;;;4961666;28;10066;-77
2022/06/03 01:04:05;;;;;;;;;6.00;4.00;;;;;;;;4982205;28;9997;-77
2022/06/03 01:06:42;;;;;;;;;4.00;4.00;;;;;;;;4987957;28;10110;-79
2022/06/03 01:09:31;;;;;;;;;4.00;4.00;;;;;;;;4970217;28;10779;-79
2022/06/03 01:12:29;;;;;;;;;3.25;3.25;;;;;;;;4983222;28;9953;-79
2022/06/03 01:15:15;;;;;;;;;4.00;4.00;;;;;;;;4956462;28;9882;-81
2022/06/03 01:17:51;;;;;;;;;6.00;4.50;;;;;;;;4992716;28;9923;-77
2022/06/03 01:20:34;;;;;;;;;6.75;4.00;;;;;;;;4983812;28;9885;-80
2022/06/03 01:23:34;;;;;;;;;3.00;3.00;;;;;;;;4982301;28;9811;-79
2022/06/03 01:26:19;;;;;;;;;4.00;4.00;;;;;;;;4987705;28;9992;-78
2022/06/03 01:29:20;;;;;;;;;5.00;3.75;;;;;;;;4980574;28;9927;-79
2022/06/03 01:32:29;;;;;;;;;8.00;6.25;;;;;;;;4964994;28;9828;-78
2022/06/03 01:35:08;;;;;;;;;7.75;7.00;;;;;;;;4984994;28;9920;-79
2022/06/03 01:37:40;;;;;;;;;3.75;3.75;;;;;;;;4988399;28;10082;-79
2022/06/03 01:40:30;;;;;;;;;4.00;4.00;;;;;;;;4984907;28;9896;-77
2022/06/03 01:43:23;;;;;;;;;5.00;5.00;;;;;;;;4988173;28;9864;-77
2022/06/03 01:46:27;;;;;;;;;5.25;4.00;;;;;;;;4990336;28;9880;-77
2022/06/03 01:49:36;;;;;;;;;4.00;4.00;;;;;;;;4978570;28;10000;-77
2022/06/03 01:52:44;;;;;;;;;5.25;5.25;;;;;;;;4988728;28;9706;-77
2022/06/03 01:55:43;;;;;;;;;4.50;4.50;;;;;;;;4990064;28;9718;-78
2022/06/03 01:58:39;;;;;;;;;5.75;5.75;;;;;;;;4966579;28;9828;-78
2022/06/03 02:01:24;;;;;;;;;4.00;4.00;;;;;;;;4982328;28;9699;-78
2022/06/03 02:04:07;;;;;;;;;5.50;5.50;;;;;;;;4985928;28;9635;-79
2022/06/03 02:06:56;;;;;;;;;5.25;4.00;;;;;;;;4984572;28;9768;-78
2022/06/03 02:10:03;;;;;;;;;10.00;5.50;;;;;;;;4985876;28;9669;-79
2022/06/03 02:13:00;;;;;;;;;4.00;4.00;;;;;;;;4985363;28;9719;-78
2022/06/03 02:16:07;;;;;;;;;6.50;6.50;;;;;;;;4944363;28;9728;-78
2022/06/03 02:19:11;;;;;;;;;5.00;5.00;;;;;;;;4961741;28;9688;-79
2022/06/03 02:22:23;;;;;;;;;3.50;3.00;;;;;;;;4968689;28;9715;-80
2022/06/03 02:25:22;;;;;;;;;9.50;7.50;;;;;;;;4960657;28;10343;-79
2022/06/03 02:28:24;;;;;;;;;7.25;7.25;;;;;;;;4982512;28;9935;-79
2022/06/03 02:31:05;;;;;;;;;7.50;7.50;;;;;;;;4958850;28;9845;-79
2022/06/03 02:34:11;;;;;;;;;5.25;5.25;;;;;;;;4982566;28;9864;-80
2022/06/03 02:37:05;;;;;;;;;9.75;8.50;;;;;;;;4985468;28;9753;-79
2022/06/03 02:40:11;;;;;;;;;8.00;8.00;;;;;;;;4978135;28;9787;-79
2022/06/03 02:43:18;;;;;;;;;7.75;7.75;;;;;;;;4953366;28;9926;-80
2022/06/03 02:46:24;;;;;;;;;7.00;7.00;;;;;;;;4972315;28;9864;-79
2022/06/03 02:49:48;;;;;;;;;6.50;6.50;;;;;;;;4966330;28;9863;-78
2022/06/03 02:52:32;;;;;;;;;8.75;7.25;;;;;;;;4918651;29;9818;-80
2022/06/03 02:55:22;;;;;;;;;8.00;8.00;;;;;;;;4919455;29;9902;-81
2022/06/03 02:58:13;;;;;;;;;9.00;7.75;;;;;;;;4983259;28;9802;-80
2022/06/03 03:00:59;;;;;;;;;9.50;7.50;;;;;;;;4985554;28;9772;-80
2022/06/03 03:04:00;;;;;;;;;8.00;8.00;;;;;;;;4986041;28;9980;-84
2022/06/03 03:07:15;;;;;;;;;8.00;6.50;;;;;;;;4988704;28;9789;-81
2022/06/03 03:10:03;;;;;;;;;5.25;5.25;;;;;;;;4962911;28;9778;-79
2022/06/03 03:13:11;;;;;;;;;4.00;4.00;;;;;;;;4981128;28;9642;-79
2022/06/03 03:16:05;;;;;;;;;9.00;8.25;;;;;;;;4988697;28;9632;-79
2022/06/03 03:18:51;;;;;;;;;7.00;7.00;;;;;;;;4985059;28;9866;-80
2022/06/03 03:21:51;;;;;;;;;9.00;9.00;;;;;;;;4989143;28;9841;-79
2022/06/03 03:24:37;;;;;;;;;4.25;4.25;;;;;;;;4962955;28;9809;-78
2022/06/03 03:27:21;;;;;;;;;6.00;6.00;;;;;;;;4982992;28;9576;-79
2022/06/03 03:30:03;;;;;;;;;8.00;8.00;;;;;;;;4985065;28;9607;-81
2022/06/03 03:32:45;;;;;;;;;7.75;7.75;;;;;;;;4985014;28;9772;-81
2022/06/03 03:35:54;;;;;;;;;10.00;8.50;;;;;;;;4962538;28;9879;-81
2022/06/03 03:38:48;;;;;;;;;9.00;9.00;;;;;;;;4918025;28;9827;-81
2022/06/03 03:41:44;;;;;;;;;10.75;8.25;;;;;;;;4967956;28;9726;-82
2022/06/03 03:44:42;;;;;;;;;5.00;5.00;;;;;;;;4975023;28;10472;-80
2022/06/03 03:47:45;;;;;;;;;8.00;8.00;;;;;;;;4988223;28;9635;-83
2022/06/03 03:50:54;;;;;;;;;8.50;8.50;;;;;;;;4979991;28;9649;-81
2022/06/03 03:53:46;;;;;;;;;8.00;8.00;;;;;;;;4935684;28;9665;-78
2022/06/03 03:57:02;;;;;;;;;8.00;8.00;;;;;;;;4982765;28;9564;-78
2022/06/03 04:00:10;;;;;;;;;8.75;8.00;;;;;;;;4979413;28;9591;-79
2022/06/03 04:03:17;;;;;;;;;7.75;7.75;;;;;;;;4913166;28;9674;-78
2022/06/03 04:06:15;;;;;;;;;4.00;4.00;;;;;;;;4990931;28;9720;-80
2022/06/03 04:09:07;;;;;;;;;7.00;7.00;;;;;;;;4988698;28;9760;-81
2022/06/03 04:11:55;;;;;;;;;8.75;8.50;;;;;;;;4991361;28;10354;-80
2022/06/03 04:14:53;;;;;;;;;8.00;8.00;;;;;;;;4993440;28;9626;-80
2022/06/03 04:18:00;;;;;;;;;8.25;8.25;;;;;;;;4986724;28;9514;-81
2022/06/03 04:21:03;;;;;;;;;11.75;10.00;;;;;;;;4970602;28;9498;-81
2022/06/03 04:24:19;;;;;;;;;7.00;7.00;;;;;;;;4963904;28;9774;-80
2022/06/03 04:27:00;;;;;;;;;12.25;8.25;;;;;;;;4985690;28;9490;-81
2022/06/03 04:30:04;;;;;;;;;7.75;7.75;;;;;;;;4987445;28;9645;-80
2022/06/03 04:33:01;;;;;;;;;10.75;10.75;;;;;;;;4920844;29;9703;-81
2022/06/03 04:35:54;;;;;;;;;7.00;7.00;;;;;;;;4994005;28;9639;-80
2022/06/03 04:39:06;;;;;;;;;10.50;9.75;;;;;;;;4966376;28;9597;-80
2022/06/03 04:42:09;;;;;;;;;8.50;8.50;;;;;;;;4961077;28;9694;-81
2022/06/03 04:45:13;;;;;;;;;10.00;10.00;;;;;;;;4961121;28;9478;-81
2022/06/03 04:48:19;;;;;;;;;8.00;8.00;;;;;;;;4987246;28;9524;-81
2022/06/03 04:51:39;;;;;;;;;8.00;8.00;;;;;;;;4989609;28;9530;-81
2022/06/03 04:54:42;;;;;;;;;10.00;10.00;;;;;;;;4994488;28;9452;-79
2022/06/03 04:57:48;;;;;;;;;11.33;11.33;;;;;;;;4987439;28;9338;-80
2022/06/03 05:00:22;;;;;;;;;11.67;11.00;;;;;;;;4977955;28;9435;-82
2022/06/03 05:03:32;;;;;;;;;8.67;8.67;;;;;;;;4996345;28;9334;-78
2022/06/03 05:06:33;;;;;;;;;10.33;10.33;;;;;;;;4986012;28;9390;-80
2022/06/03 05:09:39;;;;;;;;;9.00;9.00;;;;;;;;4983851;28;10142;-80
2022/06/03 05:12:45;;;;;;;;;11.33;11.33;;;;;;;;4987701;28;9376;-80
2022/06/03 05:16:02;;;;;;;;;11.33;10.00;;;;;;;;4990055;28;9181;-80
2022/06/03 05:19:18;;;;;;;;;6.67;6.67;;;;;;;;4988490;28;9163;-80
2022/06/03 05:22:08;;;;;;;;;10.33;10.33;;;;;;;;4907306;29;9058;-87
2022/06/03 05:24:58;;;;;;;;;9.33;9.33;;;;;;;;4990331;28;8972;-84
2022/06/03 05:28:01;;;;;;;;;9.75;9.75;;;;;;;;4964243;28;8948;-74
2022/06/03 05:31:07;;;;;;;;;9.00;9.00;;;;;;;;4976395;28;8800;-73
2022/06/03 05:33:56;;;;;;;;;9.00;9.00;;;;;;;;4950879;28;9666;-70
2022/06/03 05:36:47;;;;;;;;;11.50;10.00;;;;;;;;4981316;28;8846;-73
2022/06/03 05:40:04;;;;;;;;;9.00;9.00;;;;;;;;4990370;28;8852;-72
2022/06/03 05:42:49;;;;;;;;;6.75;6.75;;;;;;;;4925969;29;8883;-71
2022/06/03 05:46:07;;;;;;;;;8.75;8.75;;;;;;;;4927054;28;8871;-71
2022/06/03 05:48:47;;;;;;;;;10.75;10.75;;;;;;;;4978402;28;8882;-72
2022/06/03 05:51:31;;;;;;;;;6.00;6.00;;;;;;;;4983965;28;8870;-76
2022/06/03 05:54:03;;;;;;;;;7.25;7.25;;;;;;;;4964062;28;8871;-73
2022/06/03 05:56:40;;;;;;;;;9.00;7.25;;;;;;;;4985431;28;8883;-73
2022/06/03 05:59:17;;;;;;;;;9.25;7.00;;;;;;;;4986659;28;8892;-75
2022/06/03 06:02:07;;;;;;;;;6.50;6.50;;;;;;;;4982826;28;8922;-73
2022/06/03 06:04:45;;;;;;;;;6.75;6.75;;;;;;;;4979539;28;8876;-72
2022/06/03 06:07:21;;;;;;;;;7.25;7.25;;;;;;;;4984256;28;8857;-72
2022/06/03 06:09:55;;;;;;;;;9.00;7.00;;;;;;;;4983333;28;8885;-74
2022/06/03 06:12:40;;;;;;;;;7.50;7.50;;;;;;;;4983262;28;9723;-77
2022/06/03 06:15:42;;;;;;;;;4.25;4.25;;;;;;;;4991900;28;8887;-76
2022/06/03 06:18:17;;;;;;;;;7.00;6.25;;;;;;;;4985759;28;8941;-75
2022/06/03 06:20:56;;;;;;;;;6.75;5.50;;;;;;;;4975754;28;8866;-76
2022/06/03 06:23:40;;;;;;;;;3.00;3.00;;;;;;;;4981305;28;8878;-74
2022/06/03 06:26:45;;;;;;;;;4.75;4.75;;;;;;;;4968966;28;8878;-75
2022/06/03 06:29:41;;;;;;;;;5.00;5.00;;;;;;;;4984382;28;8874;-77
2022/06/03 06:32:37;;;;;;;;;5.00;5.00;;;;;;;;4983559;28;8799;-74
2022/06/03 06:35:35;;;;;;;;;6.00;6.00;;;;;;;;4988554;28;8913;-73
2022/06/03 06:38:10;;;;;;;;;5.00;5.00;;;;;;;;4987791;28;8965;-78
2022/06/03 06:40:47;;;;;;;;;6.00;6.00;;;;;;;;4985582;28;8933;-74
2022/06/03 06:43:30;;;;;;;;;5.00;5.00;;;;;;;;4982613;28;8846;-73
2022/06/03 06:46:03;;;;;;;;;6.00;4.00;;;;;;;;4984257;28;8897;-76
2022/06/03 06:48:41;;;;;;;;;6.25;6.25;;;;;;;;4991994;28;8894;-75
2022/06/03 06:51:24;;;;;;;;;6.00;6.00;;;;;;;;4979083;28;8889;-75
2022/06/03 06:53:58;;;;;;;;;5.00;5.00;;;;;;;;4986451;28;8870;-76
2022/06/03 06:56:29;;;;;;;;;5.50;5.50;;;;;;;;4985767;28;8888;-77
2022/06/03 06:58:59;;;;;;;;;6.00;6.00;;;;;;;;4986661;28;8880;-76
2022/06/03 07:01:31;;;;;;;;;6.50;6.50;;;;;;;;4974187;28;8852;-76
2022/06/03 07:04:03;;;;;;;;;8.75;7.00;;;;;;;;4992911;28;8876;-76
2022/06/03 07:06:43;;;;;;;;;3.00;3.00;;;;;;;;4985436;28;9683;-76
2022/06/03 07:09:43;;;;;;;;;7.00;5.00;;;;;;;;4988665;28;8906;-76
2022/06/03 07:12:14;;;;;;;;;7.00;5.00;;;;;;;;4982738;28;8864;-76
2022/06/03 07:14:53;;;;;;;;;8.00;6.50;;;;;;;;4987518;28;8868;-76
2022/06/03 07:20:27;;;;;;;;;5.25;5.25;;;;;;;;4987330;28;9795;-75
2022/06/03 07:22:57;;;;;;;;;9.00;7.00;;;;;;;;4983910;28;8863;-75
2022/06/03 07:25:27;;;;;;;;;4.75;4.75;;;;;;;;4980612;28;8870;-75
2022/06/03 07:28:00;;;;;;;;;5.75;5.75;;;;;;;;4980512;28;8864;-75
2022/06/03 07:30:36;;;;;;;;;5.50;5.50;;;;;;;;4984957;28;8825;-75
2022/06/03 07:33:11;;;;;;;;;6.00;5.00;;;;;;;;4973612;28;8953;-76
2022/06/03 07:35:45;;;;;;;;;8.50;6.75;;;;;;;;4992530;28;8883;-76
2022/06/03 07:38:20;;;;;;;;;6.50;6.50;;;;;;;;4964869;28;8877;-75
2022/06/03 07:40:52;;;;;;;;;5.50;4.00;;;;;;;;4987247;28;8880;-76
2022/06/03 07:43:23;;;;;;;;;5.25;5.25;;;;;;;;4987612;28;8849;-79
2022/06/03 07:45:53;;;;;;;;;5.50;5.50;;;;;;;;4984834;28;8903;-77
2022/06/03 07:48:22;;;;;;;;;6.25;4.50;;;;;;;;4987751;28;8860;-78
2022/06/03 07:50:57;;;;;;;;;7.00;7.00;;;;;;;;4993079;28;8876;-77
2022/06/03 07:53:35;;;;;;;;;5.50;5.50;;;;;;;;4987620;28;8944;-77
2022/06/03 07:56:03;;;;;;;;;5.60;5.00;;;;;;;;4980689;28;8894;-79
2022/06/03 07:58:33;;;;;;;;;5.00;5.00;;;;;;;;4983418;28;8880;-74
2022/06/03 08:01:01;;;;;;;;;4.00;4.00;;;;;;;;4990626;28;9617;-74
2022/06/03 08:03:36;;;;;;;;;4.20;4.20;;;;;;;;4984014;28;8878;-76
2022/06/03 08:06:07;;;;;;;;;6.60;5.00;;;;;;;;4987662;28;8864;-75
2022/06/03 08:11:30;;;;;;;;;4.40;4.40;;;;;;;;4990076;28;9730;-77
2022/06/03 08:13:59;;;;;;;;;6.00;6.00;;;;;;;;4992805;28;8856;-78
2022/06/03 08:16:33;;;;;;;;;4.40;4.40;;;;;;;;4993162;28;8886;-76
2022/06/03 08:19:04;;;;;;;;;3.60;3.60;;;;;;;;4987634;28;8878;-73
2022/06/03 08:21:38;;;;;;;;;4.20;4.20;;;;;;;;4986117;28;8875;-73
2022/06/03 08:24:07;;;;;;;;;1.60;1.60;;;;;;;;4988283;28;8876;-74
2022/06/03 08:26:35;;;;;;;;;4.20;2.20;;;;;;;;4984936;28;8901;-77
2022/06/03 08:29:10;;;;;;;;;5.20;5.20;;;;;;;;4986932;28;8897;-75
2022/06/03 08:31:39;;;;;;;;;5.00;5.00;;;;;;;;4969696;28;8905;-72
2022/06/03 08:34:11;;;;;;;;;4.00;4.00;;;;;;;;4993483;28;8881;-74
2022/06/03 08:36:41;;;;;;;;;5.40;5.40;;;;;;;;4981631;28;8858;-74
2022/06/03 08:39:15;;;;;;;;;4.00;4.00;;;;;;;;4987979;28;8849;-73
2022/06/03 08:41:54;;;;;;;;;4.40;4.40;;;;;;;;4964644;28;8883;-72
2022/06/03 08:44:33;;;;;;;;;6.60;4.00;;;;;;;;4986668;28;8890;-73
2022/06/03 08:47:06;;;;;;;;;6.00;6.00;;;;;;;;4979803;28;8867;-73
2022/06/03 08:49:55;;;;;;;;;5.00;5.00;;;;;;;;4985466;28;8878;-77
2022/06/03 08:52:31;;;;;;;;;6.00;6.00;;;;;;;;4973685;28;8855;-74
2022/06/03 08:54:59;;;;;;;;;5.40;5.40;;;;;;;;4990536;28;8872;-75
2022/06/03 08:57:34;;;;;;;;;6.80;5.00;;;;;;;;4973305;28;8865;-74
2022/06/03 09:00:07;;;;;;;;;5.20;5.20;;;;;;;;4993582;28;8886;-74
2022/06/03 09:02:39;;;;;;;;;5.80;5.80;;;;;;;;4991874;28;8819;-74
2022/06/03 09:05:12;;;;;;;;;4.20;4.20;;;;;;;;4988958;28;8906;-74
2022/06/03 09:07:48;;;;;;;;;5.00;5.00;;;;;;;;4992825;28;8905;-74
2022/06/03 09:10:23;;;;;;;;;3.00;3.00;;;;;;;;4989567;28;9984;-74
2022/06/03 09:12:56;;;;;;;;;5.80;5.80;;;;;;;;4982316;28;8900;-77
2022/06/03 09:15:27;;;;;;;;;6.00;6.00;;;;;;;;4990485;28;8894;-76
2022/06/03 09:18:00;;;;;;;;;6.20;6.20;;;;;;;;4999669;28;8887;-75
2022/06/03 09:20:32;;;;;;;;;5.40;5.40;;;;;;;;4989411;28;8878;-77
2022/06/03 09:23:05;;;;;;;;;5.20;5.20;;;;;;;;4992933;28;8856;-78
2022/06/03 09:25:33;;;;;;;;;4.00;4.00;;;;;;;;4996180;28;8870;-78
2022/06/03 09:28:05;;;;;;;;;7.80;6.40;;;;;;;;4988653;28;8934;-75
2022/06/03 09:30:38;;;;;;;;;6.00;5.20;;;;;;;;4993051;28;8813;-76
2022/06/03 09:33:07;;;;;;;;;3.80;3.80;;;;;;;;4983759;28;8855;-71
2022/06/03 09:35:37;;;;;;;;;6.20;6.20;;;;;;;;4989005;28;8841;-76
2022/06/03 09:38:07;;;;;;;;;4.80;4.80;;;;;;;;4987711;28;8856;-76
2022/06/03 09:40:37;;;;;;;;;9.40;7.60;;;;;;;;4994616;28;8963;-74
2022/06/03 09:43:12;;;;;;;;;7.00;5.00;;;;;;;;4988463;28;8868;-75
2022/06/03 09:45:45;;;;;;;;;5.00;5.00;;;;;;;;4977548;28;8887;-74
2022/06/03 09:48:14;;;;;;;;;7.40;6.40;;;;;;;;4966005;28;8863;-74
2022/06/03 09:50:42;;;;;;;;;5.80;5.80;;;;;;;;4948513;28;8879;-74
2022/06/03 09:53:12;;;;;;;;;6.00;5.80;;;;;;;;4985657;28;8864;-77
2022/06/03 09:55:43;;;;;;;;;6.20;5.80;;;;;;;;4985916;28;8956;-78
2022/06/03 09:58:16;;;;;;;;;6.20;5.00;;;;;;;;4993316;28;8926;-74
2022/06/03 10:00:46;;;;;;;;;5.20;5.20;;;;;;;;4990012;28;8812;-75
2022/06/03 10:03:14;;;;;;;;;6.80;6.80;;;;;;;;4989257;28;8856;-77
2022/06/03 10:05:44;;;;;;;;;5.60;5.60;;;;;;;;4959210;28;8877;-76
2022/06/03 10:08:13;;;;;;;;;5.20;5.20;;;;;;;;4985480;28;9663;-76
2022/06/03 10:13:28;;;;;;;;;7.00;6.20;;;;;;;;4984940;28;8851;-75
2022/06/03 10:15:58;;;;;;;;;6.80;6.80;;;;;;;;4988391;28;8862;-76
2022/06/03 10:18:31;;;;;;;;;6.60;6.60;;;;;;;;4978390;28;8869;-77
2022/06/03 10:21:00;;;;;;;;;7.60;4.20;;;;;;;;4991856;28;8860;-76
2022/06/03 10:23:32;;;;;;;;;4.40;4.40;;;;;;;;4978696;28;8876;-76
2022/06/03 10:26:01;;;;;;;;;6.20;4.80;;;;;;;;4980203;28;8956;-76
2022/06/03 10:28:34;;;;;;;;;5.80;5.40;;;;;;;;4985832;28;8994;-76
2022/06/03 10:31:04;;;;;;;;;6.20;6.20;;;;;;;;4981660;28;8847;-76
2022/06/03 10:33:32;;;;;;;;;5.80;5.40;;;;;;;;4992090;28;8872;-80
2022/06/03 10:36:01;;;;;;;;;5.20;5.20;;;;;;;;4981944;28;8909;-77
2022/06/03 10:38:33;;;;;;;;;7.20;5.80;;;;;;;;4986636;28;8898;-79
2022/06/03 10:41:06;;;;;;;;;6.00;6.00;;;;;;;;4983067;28;8860;-77
2022/06/03 10:43:36;;;;;;;;;5.00;5.00;;;;;;;;4984002;28;8902;-76
2022/06/03 10:46:16;;;;;;;;;5.00;5.00;;;;;;;;4962644;28;8862;-77
2022/06/03 10:48:44;;;;;;;;;5.80;5.80;;;;;;;;4980666;28;8851;-77
2022/06/03 10:51:17;;;;;;;;;7.40;5.80;;;;;;;;4984489;28;8859;-75
2022/06/03 11:02:29;;;;;;;;;6.40;6.40;;;;;;;;4989094;28;8819;-74
2022/06/03 11:05:12;;;;;;;;;6.80;6.20;;;;;;;;4984936;28;8917;-74
2022/06/03 11:07:40;;;;;;;;;6.40;6.40;;;;;;;;4994219;28;8868;-74
2022/06/03 11:10:13;;;;;;;;;5.80;5.80;;;;;;;;4992909;28;8999;-74
2022/06/03 11:12:40;;;;;;;;;6.60;6.60;;;;;;;;4993300;28;8904;-78
2022/06/03 11:15:31;;;;;;;;;5.60;5.60;;;;;;;;5002246;28;8872;-75
2022/06/03 11:18:00;;;;;;;;;7.20;5.80;;;;;;;;4995863;28;8918;-74
2022/06/03 11:20:36;;;;;;;;;7.40;7.40;;;;;;;;4992691;28;8852;-75
2022/06/03 11:23:07;;;;;;;;;5.00;5.00;;;;;;;;4989376;28;8902;-74
2022/06/03 11:25:39;;;;;;;;;4.40;4.40;;;;;;;;4984620;28;8869;-75
2022/06/03 11:28:09;;;;;;;;;8.60;7.00;;;;;;;;4980921;28;8892;-74
2022/06/03 11:30:39;;;;;;;;;7.40;6.40;;;;;;;;4989898;28;8837;-75
2022/06/03 11:33:10;;;;;;;;;6.80;6.80;;;;;;;;4977972;28;8860;-74
2022/06/03 11:35:41;;;;;;;;;6.60;6.60;;;;;;;;4976375;28;8882;-74
2022/06/03 11:38:12;;;;;;;;;7.80;6.80;;;;;;;;4999590;28;8852;-75
2022/06/03 11:40:51;;;;;;;;;7.20;7.20;;;;;;;;4993620;28;8938;-72
2022/06/03 11:43:23;;;;;;;;;7.80;7.80;;;;;;;;4991134;28;8875;-73
2022/06/03 11:45:55;;;;;;;;;6.40;6.40;;;;;;;;5001048;28;8930;-74
2022/06/03 11:48:28;;;;;;;;;8.80;7.20;;;;;;;;4992822;28;8898;-74
2022/06/03 11:50:57;;;;;;;;;7.00;7.00;;;;;;;;4999218;28;8852;-73
2022/06/03 11:53:27;;;;;;;;;6.40;6.40;;;;;;;;4997753;28;8866;-73
2022/06/03 11:56:00;;;;;;;;;8.20;8.20;;;;;;;;4986588;28;9403;-73
2022/06/03 11:58:39;;;;;;;;;5.80;5.80;;;;;;;;4983818;28;8898;-76
2022/06/03 12:01:12;;;;;;;;;5.80;5.80;;;;;;;;4985249;28;9623;-76
2022/06/03 12:03:43;;;;;;;;;8.60;8.60;;;;;;;;4984544;28;8858;-77
2022/06/03 12:06:22;;;;;;;;;6.60;6.60;;;;;;;;4986237;28;8893;-76
2022/06/03 12:08:54;;;;;;;;;7.20;6.80;;;;;;;;4987519;28;8835;-77
2022/06/03 12:14:33;;;;;;;;;9.60;9.60;;;;;;;;4983171;28;8862;-78
2022/06/03 12:17:17;;;;;;;;;6.80;6.80;;;;;;;;4992146;28;8976;-78
2022/06/03 12:19:47;;;;;;;;;7.00;7.00;;;;;;;;4985601;28;8860;-79
2022/06/03 12:22:39;;;;;;;;;6.80;6.80;;;;;;;;4966313;28;8906;-75
2022/06/03 12:25:29;;;;;;;;;8.80;7.20;;;;;;;;4988690;28;8863;-74
2022/06/03 12:28:01;;;;;;;;;8.20;7.00;;;;;;;;4985226;28;8942;-75
2022/06/03 12:30:39;;;;;;;;;9.40;9.40;;;;;;;;4989343;28;8779;-77
2022/06/03 12:33:10;;;;;;;;;9.60;8.00;;;;;;;;4979395;28;8866;-75
2022/06/03 12:35:58;;;;;;;;;6.80;6.80;;;;;;;;4990446;28;8936;-76
2022/06/03 12:38:35;;;;;;;;;8.80;8.40;;;;;;;;4982124;28;8863;-75
2022/06/03 12:41:06;;;;;;;;;9.80;9.80;;;;;;;;4984215;28;8920;-77
2022/06/03 12:43:57;;;;;;;;;6.40;6.40;;;;;;;;4973797;28;8893;-78
2022/06/03 12:46:41;;;;;;;;;7.60;7.60;;;;;;;;4982057;28;8872;-74
2022/06/03 12:49:36;;;;;;;;;12.20;9.20;;;;;;;;4982885;28;8928;-73
2022/06/03 12:52:08;;;;;;;;;10.40;8.80;;;;;;;;4978827;28;9770;-75
2022/06/03 12:54:36;;;;;;;;;8.00;8.00;;;;;;;;4986043;28;8862;-73
2022/06/03 12:57:08;;;;;;;;;8.80;8.80;;;;;;;;4987257;28;8867;-74
2022/06/03 12:59:45;;;;;;;;;8.80;8.80;;;;;;;;4981070;28;8864;-74
2022/06/03 13:02:18;;;;;;;;;8.00;8.00;;;;;;;;4985803;28;8847;-74
2022/06/03 13:05:08;;;;;;;;;9.00;7.60;;;;;;;;4982998;28;8878;-74
2022/06/03 13:07:39;;;;;;;;;10.60;10.60;;;;;;;;4973515;28;8902;-74
2022/06/03 13:10:31;;;;;;;;;8.40;8.40;;;;;;;;4983801;28;8860;-74
2022/06/03 13:13:23;;;;;;;;;8.40;8.40;;;;;;;;4950067;28;8888;-75
2022/06/03 13:15:52;;;;;;;;;8.20;8.20;;;;;;;;4984725;28;8880;-74
2022/06/03 13:18:41;;;;;;;;;7.20;6.20;;;;;;;;4980316;28;8854;-75
2022/06/03 13:21:20;;;;;;;;;9.80;9.80;;;;;;;;4982489;28;8897;-80
2022/06/03 13:23:58;;;;;;;;;9.20;7.60;;;;;;;;4973423;28;8843;-74
2022/06/03 13:26:48;;;;;;;;;9.80;9.80;;;;;;;;4964012;28;8887;-76
2022/06/03 13:29:56;;;;;;;;;10.00;10.00;;;;;;;;4957053;28;8907;-74
2022/06/03 13:32:53;;;;;;;;;11.20;11.20;;;;;;;;4960605;28;8837;-74
2022/06/03 13:35:23;;;;;;;;;8.00;8.00;;;;;;;;4947502;28;8855;-74
2022/06/03 13:37:52;;;;;;;;;8.80;8.80;;;;;;;;4962234;28;9013;-74
2022/06/03 13:40:31;;;;;;;;;7.60;7.60;;;;;;;;4968559;28;9752;-74
2022/06/03 13:43:14;;;;;;;;;7.60;7.60;;;;;;;;4961523;28;10001;-73
2022/06/03 13:46:04;;;;;;;;;11.20;10.00;;;;;;;;4945284;28;8907;-73
2022/06/03 13:48:46;;;;;;;;;11.80;10.80;;;;;;;;4960544;28;8880;-76
2022/06/03 13:51:18;;;;;;;;;8.60;8.60;;;;;;;;4951243;28;8891;-73
2022/06/03 13:53:52;;;;;;;;;9.80;9.80;;;;;;;;4964354;28;8892;-75
2022/06/03 13:56:22;;;;;;;;;8.00;8.00;;;;;;;;4960940;28;8959;-78
2022/06/03 13:58:50;;;;;;;;;8.40;8.40;;;;;;;;4955912;28;8874;-74
2022/06/03 14:01:27;;;;;;;;;12.80;11.40;;;;;;;;4958811;28;8874;-72
2022/06/03 14:04:00;;;;;;;;;8.80;8.80;;;;;;;;4961256;28;8858;-74
2022/06/03 14:06:35;;;;;;;;;11.80;11.60;;;;;;;;4960567;28;8874;-75
2022/06/03 14:09:09;;;;;;;;;12.20;12.00;;;;;;;;4965531;28;8899;-76
2022/06/03 14:11:40;;;;;;;;;12.00;11.60;;;;;;;;4962995;28;8875;-75
2022/06/03 14:14:12;;;;;;;;;11.20;11.20;;;;;;;;4965847;28;8835;-75
2022/06/03 14:16:44;;;;;;;;;10.40;10.40;;;;;;;;4965863;28;8879;-75
2022/06/03 14:19:47;;;;;;;;;11.80;11.80;;;;;;;;4970354;28;8851;-75
2022/06/03 14:22:24;;;;;;;;;11.00;11.00;;;;;;;;4968092;28;8872;-76
2022/06/03 14:25:02;;;;;;;;;10.00;10.00;;;;;;;;4973870;28;8945;-76
2022/06/03 14:27:34;;;;;;;;;12.60;11.80;;;;;;;;4985857;28;8897;-74
2022/06/03 14:30:07;;;;;;;;;10.80;9.60;;;;;;;;4990413;28;8885;-74
2022/06/03 14:32:37;;;;;;;;;9.80;9.80;;;;;;;;4980383;28;8816;-76
2022/06/03 14:35:11;;;;;;;;;12.00;12.00;;;;;;;;4978283;28;8870;-75
2022/06/03 14:37:46;;;;;;;;;13.00;10.80;;;;;;;;4965723;28;8867;-75
2022/06/03 14:40:18;;;;;;;;;11.20;11.20;;;;;;;;4980877;28;8865;-75
2022/06/03 14:42:45;;;;;;;;;12.00;9.00;;;;;;;;4983447;28;8897;-75
2022/06/03 14:45:15;;;;;;;;;12.20;12.20;;;;;;;;4972716;28;8857;-76
2022/06/03 14:47:47;;;;;;;;;12.80;12.80;;;;;;;;4982793;28;9491;-75
2022/06/03 14:50:20;;;;;;;;;10.80;10.80;;;;;;;;4979256;28;8866;-75
2022/06/03 14:52:50;;;;;;;;;13.40;12.00;;;;;;;;4988060;28;8915;-75
2022/06/03 14:55:20;;;;;;;;;12.00;12.00;;;;;;;;4979049;28;8985;-75
2022/06/03 14:57:54;;;;;;;;;14.60;13.60;;;;;;;;4988139;28;8876;-75
2022/06/03 15:00:53;;;;;;;;;14.00;14.00;;;;;;;;4985154;28;8867;-75
2022/06/03 15:03:25;;;;;;;;;13.40;13.40;;;;;;;;4976361;28;8871;-75
2022/06/03 15:05:55;;;;;;;;;13.00;13.00;;;;;;;;4972828;28;9552;-72
2022/06/03 15:08:27;;;;;;;;;15.00;14.40;;;;;;;;4980727;28;9508;-73
2022/06/03 15:11:06;;;;;;;;;16.00;14.60;;;;;;;;4986140;28;8863;-73
2022/06/03 15:13:34;;;;;;;;;13.60;13.60;;;;;;;;4985398;28;8870;-72
2022/06/03 15:16:04;;;;;;;;;17.00;14.60;;;;;;;;4981949;28;8858;-73
2022/06/03 15:18:33;;;;;;;;;15.80;15.80;;;;;;;;4985028;28;8859;-73
2022/06/03 15:21:08;;;;;;;;;17.00;13.80;;;;;;;;4979712;28;8921;-74
2022/06/03 15:23:36;;;;;;;;;14.00;14.00;;;;;;;;4976049;28;8854;-75
2022/06/03 15:26:06;;;;;;;;;15.60;15.60;;;;;;;;4992459;28;8874;-74
2022/06/03 15:28:36;;;;;;;;;16.40;15.00;;;;;;;;4983953;28;8856;-72
2022/06/03 15:31:06;;;;;;;;;15.40;15.40;;;;;;;;4990614;28;8913;-71
2022/06/03 15:33:37;;;;;;;;;16.20;16.20;;;;;;;;4989725;28;8906;-72
2022/06/03 15:36:09;;;;;;;;;13.20;13.20;;;;;;;;4983059;28;8855;-75
2022/06/03 15:38:40;;;;;;;;;16.00;15.00;;;;;;;;4990563;28;9688;-72
2022/06/03 15:41:10;;;;;;;;;18.60;17.80;;;;;;;;4978255;28;8892;-73
2022/06/03 15:43:42;;;;;;;;;15.80;15.80;;;;;;;;4979200;28;8866;-73
2022/06/03 15:46:10;;;;;;;;;14.40;14.40;;;;;;;;4970588;28;8953;-72
2022/06/03 15:48:53;;;;;;;;;15.20;15.20;;;;;;;;4984610;28;8866;-73
2022/06/03 15:51:22;;;;;;;;;14.60;13.20;;;;;;;;4980869;28;8911;-73
2022/06/03 15:53:52;;;;;;;;;17.60;17.60;;;;;;;;4978952;28;8937;-74
2022/06/03 15:56:32;;;;;;;;;15.80;14.80;;;;;;;;4972032;28;8893;-73
2022/06/03 15:59:13;;;;;;;;;12.80;12.80;;;;;;;;4986441;28;8894;-73
2022/06/03 16:01:55;;;;;;;;;18.40;17.00;;;;;;;;4974565;28;10025;-74
2022/06/03 16:04:36;;;;;;;;;18.40;18.40;;;;;;;;4975120;28;8887;-73
2022/06/03 16:07:22;;;;;;;;;11.80;11.80;;;;;;;;4979562;28;8839;-73
2022/06/03 16:09:53;;;;;;;;;14.40;14.40;;;;;;;;4983562;28;8866;-73
2022/06/03 16:12:23;;;;;;;;;15.00;14.20;;;;;;;;4985203;28;8886;-74
2022/06/03 16:15:10;;;;;;;;;16.20;16.20;;;;;;;;4979010;28;9657;-73
2022/06/03 16:17:48;;;;;;;;;16.20;16.20;;;;;;;;4985382;28;9013;-72
2022/06/03 16:20:17;;;;;;;;;22.00;20.20;;;;;;;;4986171;28;8885;-72
2022/06/03 16:23:12;;;;;;;;;24.00;24.00;;;;;;;;4985404;28;8892;-73
2022/06/03 16:25:53;;;;;;;;;22.80;22.20;;;;;;;;4986905;28;8904;-72
2022/06/03 16:28:25;;;;;;;;;19.40;19.40;;;;;;;;4984861;28;8952;-73
2022/06/03 16:31:00;;;;;;;;;18.20;18.20;;;;;;;;4983681;28;9573;-73
2022/06/03 16:33:34;;;;;;;;;20.00;20.00;;;;;;;;4984860;28;8878;-73
2022/06/03 16:36:06;;;;;;;;;17.00;17.00;;;;;;;;4983936;28;9730;-73
2022/06/03 16:38:40;;;;;;;;;17.60;17.60;;;;;;;;4984073;28;8993;-73
2022/06/03 16:41:15;;;;;;;;;20.80;20.80;;;;;;;;4984906;28;8880;-73